Malaga, OH (43757)

02:06 PM EDT die 01o September, anno 2015 (GMT -0400)
Jerusalem | | Change Station
CLOSE
Current Station
Personal Weather Stations
Location: Jerusalem, OH
Elevation: 1253 ft
Nearby Weather Stations

Elev 1253 ft 39.86 °N, 81.11 °W | Updated 17 seconds ago

Serena
Serena
87.3 °F
Feels Like 91 °F
N
1.1
Ventus Variabilis Ventus from Eurus
Gusts 2.0 mph

Hodie
High -- | Low -- °F
--% Chance of Precip.
Yesterday
High -- | Low -- °F
Precip. -- in
6:52 AM 7:56 PM
Waning Gibbous, 87% visible
Pressio 30.11 in
Visibilitas 10.0 milia passuum
Clouds Few 5000 ft
Plerumque Nubila 6500 ft
Index Caloris 91 °F
Frigus in quo Ros apparet 68 °F
Umor 53%
Rainfall 0.00 in
Snow Depth Not available.
UV 5 out of 12
Pollen 10.50 out of 12
Air Quality Not available.
Flu Activity Not available.
METAR KHLG 011753Z 27004KT 10SM FEW050 BKN065 29/19 A3013 RMK AO2 SLP194 T02940194 10300 20189 58012
Pressio 30.11 in
Visibilitas 10.0 milia passuum
Clouds Few 5000 ft
Plerumque Nubila 6500 ft
Index Caloris 91 °F
Frigus in quo Ros apparet 68 °F
Umor 53%
Rainfall 0.00 in
Snow Depth Not available.
UV 5 out of 12
Pollen 10.50 out of 12
Air Quality Not available.
Flu Activity Not available.
METAR KHLG 011753Z 27004KT 10SM FEW050 BKN065 29/19 A3013 RMK AO2 SLP194 T02940194 10300 20189 58012

10-Day Weather Forecast

×

Almanac

Astronomy

Sep. 01, 2015 Rise Set
Actual Time
Civil Twilight
Nautical Twilight
Astronomical Twilight
Moon
Length Of Visible Light
Length of Day
Tomorrow will be .
, % of the Moon is Illuminated

Today's Extremes

State Highs State Lows

Community

WunderPhotos

Upload Photos

1,851,588 photos uploaded!

WunderBlogs® & News

Nearby

Air Quality

  Air Quality AQ Index Pollutant
Not available.

Snow Depth

Station Depth Elevation

Earthquake Activity

City Distance Mag. Time & Date
Minimum magnitude displayed is 2.5.

Coastal Water Temperatures

Locus Calor

Stations

Nearby Weather Stations

Station Location Temp Frigus Venti Frigus in quo Ros apparet Umor Ventus Precip. Elev Renovata Type